Aérodrome :
LOGIN :

S'inscrire | Disclaimer

   EN    FR    IT 

 










Légende :    VFR   VFR Marginal   IFR   IFR Intensif   IFR Très Intensif
Visi : 
Plafond : 
>= 8 km
>= 3000ft
5 à 8 km
1000 à 3000 ft
1500m à 5 km
500 à 1000 ft
800 à 1500m
200 à 500 ft
< 800m
< 200 ft
Symboles :   Orages  Brouillard  Fortes neiges  Fortes précipitations  Vent > 20 kt
SIGMETs :   Divers  Orages  Givrage  Turbulence  Onde Orograph.  Cendres Volcan.







- Altitude de l'aérodrome : 584 ft
- Voir les cartes d'approche


LFPV - Villacoublay Vélizy

DERNIER METAR :
  • 211800Z AUTO 02006KT CAVOK 15/06 Q1026 NOSIG

METARs EXPIRÉS :
  • 211730Z AUTO 02006KT CAVOK 14/05 Q1026 NOSIG
  • 211700Z AUTO 36004KT CAVOK 14/05 Q1025 NOSIG
  • 211630Z AUTO 01004KT CAVOK 16/05 Q1025 NOSIG
  • 211600Z AUTO 01006KT CAVOK 17/05 Q1025 NOSIG
  • 211530Z AUTO 36006KT 320V020 CAVOK 17/05 Q1026 NOSIG

TAF TAF LFPV
Valide du 21 à 15h jusqu'au 22 à 15h UTC


211400Z 2115/2215 02006KT CAVOK
BECMG 2202/2204 BKN007
TEMPO 2204/2209 3000 DZ BR BKN002
BECMG 2210/2212 02010G20KT BKN020
FM221300 02010G20KT CAVOK
Pas de NOTAMs connus pour ce terrain.



MET'MAP, la Météo Aéronautique d'un coup d'oeil ! - Copyright ORBIFLY Décembre 2007 - Disclaimer

ORBIFLY MET'MAP TEAM :

Programmation & Développement : Alexandra Zaïnal
Conception & Développement : Baudouin d'Aumeries
Co-Programmation & Développement : Marc-Olivier Méhu
Soutien technique & logistique : Manuel Goepfert

Contact : metmap@orbifly.com




SOURCES & CREDITS :

   NOAA